Navigator Ceto — D5HE5 — position and weather

sailwx.info

Track history (hours):
 
Tides and Currents Weather Stations Pressure Air Temp Water Temp Dewpoint Dewpoint Depression Visibility Wind Speed Wind Dir Waves Ship Positions

Navigator Ceto

Last reported at 2017-Sep-19 19:33 UTC. Time now 2017-Sep-20 23:47 UTC.
Position N 05°20' E 000°21'.

Length 160 m; draft 7.2 m.

Type: Tanker. MMSI: 636016660.

Date/timePositionNaut miles runAvg speedWind from/ knotsBaromVisibWave heightAir tempDewpointWater temp
2017-Sep-19 19:33N 05°20' E 000°21'114.3
2017-Sep-19 19:30N 05°20' E 000°21'714.5
2017-Sep-19 19:00N 05°17' E 000°14'914.8
2017-Sep-19 18:24N 05°14' E 000°05'614.5
2017-Sep-19 18:00N 05°12' E 000°00'714.6
2017-Sep-19 17:30N 05°10' W 000°07'6414.5
2017-Sep-19 13:06N 04°55' W 001°09'214.6
2017-Sep-19 12:59N 04°55' W 001°11'714.5
2017-Sep-19 12:29N 04°53' W 001°18'714.5
2017-Sep-19 11:59N 04°52' W 001°26'714.7
2017-Sep-19 11:29N 04°51' W 001°33'713.9
2017-Sep-19 11:00N 04°51' W 001°39'3 5.5
2017-Sep-19 10:28N 04°52' W 001°42'0 0.1
2017-Sep-19 09:58N 04°52' W 001°42'0 0.1
2017-Sep-19 09:28N 04°52' W 001°42'0 0.0
2017-Sep-19 08:58N 04°52' W 001°42'0 0.0
2017-Sep-19 08:28N 04°52' W 001°42'0 0.0
2017-Sep-19 07:58N 04°52' W 001°42'0 0.0
2017-Sep-19 07:28N 04°52' W 001°42'0 0.0
2017-Sep-19 06:58N 04°52' W 001°42'0 0.0
2017-Sep-19 06:28N 04°52' W 001°42'108 3.4
2017-Sep-17 22:47N 04°56' E 000°06'1011.6
2017-Sep-17 21:54N 05°01' E 000°15'711.6
2017-Sep-17 21:19N 05°03' E 000°22'411.3
2017-Sep-17 20:59N 05°06' E 000°24'611.7
2017-Sep-17 20:30N 05°08' E 000°30'  
2017-Sep-14 18:55N 05°06' E 000°33'4612.5
2017-Sep-14 15:16N 04°49' W 000°09'98 8.2
2017-Sep-14 03:19N 04°13' W 001°41'0 1.1
2017-Sep-14 02:53N 04°13' W 001°41'0 1.2
2017-Sep-14 02:30N 04°13' W 001°41'1 1.3
2017-Sep-14 02:00N 04°12' W 001°41'1 1.4
2017-Sep-14 01:29N 04°11' W 001°42'1 1.4
2017-Sep-14 00:53N 04°10' W 001°42'1 1.6
2017-Sep-14 00:30N 04°10' W 001°42'1 1.6
2017-Sep-13 23:59N 04°09' W 001°43'1 1.6
2017-Sep-13 23:30N 04°08' W 001°43'1 1.6
2017-Sep-13 22:59N 04°08' W 001°43'1 1.4
2017-Sep-13 22:29N 04°07' W 001°43'1 1.2
2017-Sep-13 22:00N 04°06' W 001°43'1 1.5
2017-Sep-13 21:26N 04°05' W 001°43'0 1.1
2017-Sep-13 21:00N 04°05' W 001°43'2 3.8
2017-Sep-13 20:30N 04°06' W 001°45'610.7
2017-Sep-13 19:58N 04°10' W 001°49'511.3
2017-Sep-13 19:30N 04°13' W 001°53'811.2
2017-Sep-13 18:49N 04°16' W 002°00'411.1
2017-Sep-13 18:25N 04°18' W 002°04'610.8
2017-Sep-13 17:53N 04°21' W 002°09'1 0.6
2017-Sep-13 15:59N 04°22' W 002°10'1 1.5
2017-Sep-13 15:30N 04°21' W 002°10'1 1.4
2017-Sep-13 15:00N 04°21' W 002°09'1 1.3
2017-Sep-13 14:29N 04°20' W 002°09'1 1.1
2017-Sep-13 14:00N 04°20' W 002°09'1 1.2
2017-Sep-13 13:30N 04°19' W 002°09'1 1.1
2017-Sep-13 12:59N 04°19' W 002°08'1 1.1
2017-Sep-13 12:30N 04°18' W 002°08'1 1.2
2017-Sep-13 12:00N 04°18' W 002°07'1 1.4
2017-Sep-13 11:23N 04°17' W 002°07'1 1.5
2017-Sep-13 10:59N 04°17' W 002°07'1 1.6
2017-Sep-13 10:30N 04°16' W 002°06'1 1.5
2017-Sep-13 09:59N 04°15' W 002°06'1 1.3
2017-Sep-13 09:29N 04°15' W 002°06'1 1.3
2017-Sep-13 09:00N 04°14' W 002°05'1 1.6
2017-Sep-13 08:30N 04°13' W 002°05'1 1.4
2017-Sep-13 07:58N 04°13' W 002°04'1 1.4
2017-Sep-13 07:28N 04°12' W 002°04'1 1.1
2017-Sep-13 07:00N 04°12' W 002°04'1 1.2
2017-Sep-13 06:29N 04°11' W 002°03'1 1.4
2017-Sep-13 06:00N 04°11' W 002°03'1 1.5
2017-Sep-13 05:29N 04°10' W 002°03'1 1.6
2017-Sep-13 05:00N 04°09' W 002°03'1 1.6
2017-Sep-13 04:28N 04°08' W 002°02'1 1.8
2017-Sep-13 04:00N 04°08' W 002°02'1 1.7
2017-Sep-13 03:22N 04°07' W 002°02'1 1.7
2017-Sep-13 02:36N 04°05' W 002°01'0 1.5
2017-Sep-13 02:25N 04°05' W 002°01'1 1.5
2017-Sep-13 01:58N 04°05' W 002°01'1 1.6
2017-Sep-13 01:28N 04°04' W 002°00'1 1.7
2017-Sep-13 00:55N 04°03' W 001°60'1 1.4
2017-Sep-13 00:30N 04°03' W 001°60'  
2017-Sep-10 19:13N 03°49' W 001°29'0 0.2
2017-Sep-10 18:50N 03°49' W 001°29'0 0.3
2017-Sep-10 18:14N 03°49' W 001°29'12610.3
2017-Sep-10 06:04N 05°01' E 000°14'113.4
2017-Sep-10 06:00N 05°02' E 000°15'713.3
2017-Sep-10 05:30N 05°06' E 000°20'6012.9
2017-Sep-10 00:49N 05°44' E 001°07'713.0
2017-Sep-10 00:15N 05°50' E 001°12'312.9
2017-Sep-10 00:00N 05°53' E 001°14'612.6
2017-Sep-09 23:30N 05°58' E 001°17'3 5.5
2017-Sep-09 23:00N 06°01' E 001°18'0 0.1
2017-Sep-09 22:30N 06°01' E 001°18'0 0.0
2017-Sep-09 22:00N 06°01' E 001°18'0 0.0
2017-Sep-09 21:30N 06°01' E 001°18'0 0.0
2017-Sep-09 21:00N 06°01' E 001°18'0 0.0
2017-Sep-09 20:30N 06°01' E 001°18'0 0.0
2017-Sep-09 20:00N 06°01' E 001°18'  
Track history (hours):
 
Tides and Currents Weather Stations Pressure Air Temp Water Temp Dewpoint Dewpoint Depression Visibility Wind Speed Wind Dir Waves Ship Positions

Navigator Ceto

Last reported at 2017-Sep-19 19:33 UTC. Time now 2017-Sep-20 23:47 UTC.
Position N 05°20' E 000°21'.

Length 160 m; draft 7.2 m.

Type: Tanker. MMSI: 636016660.

Date/timePositionNaut miles runAvg speedWind from/ knotsBaromVisibWave heightAir tempDewpointWater temp
2017-Sep-19 19:33N 05°20' E 000°21'114.3
2017-Sep-19 19:30N 05°20' E 000°21'714.5
2017-Sep-19 19:00N 05°17' E 000°14'914.8
2017-Sep-19 18:24N 05°14' E 000°05'614.5
2017-Sep-19 18:00N 05°12' E 000°00'714.6
2017-Sep-19 17:30N 05°10' W 000°07'6414.5
2017-Sep-19 13:06N 04°55' W 001°09'214.6
2017-Sep-19 12:59N 04°55' W 001°11'714.5
2017-Sep-19 12:29N 04°53' W 001°18'714.5
2017-Sep-19 11:59N 04°52' W 001°26'714.7
2017-Sep-19 11:29N 04°51' W 001°33'713.9
2017-Sep-19 11:00N 04°51' W 001°39'3 5.5
2017-Sep-19 10:28N 04°52' W 001°42'0 0.1
2017-Sep-19 09:58N 04°52' W 001°42'0 0.1
2017-Sep-19 09:28N 04°52' W 001°42'0 0.0
2017-Sep-19 08:58N 04°52' W 001°42'0 0.0
2017-Sep-19 08:28N 04°52' W 001°42'0 0.0
2017-Sep-19 07:58N 04°52' W 001°42'0 0.0
2017-Sep-19 07:28N 04°52' W 001°42'0 0.0
2017-Sep-19 06:58N 04°52' W 001°42'0 0.0
2017-Sep-19 06:28N 04°52' W 001°42'108 3.4
2017-Sep-17 22:47N 04°56' E 000°06'1011.6
2017-Sep-17 21:54N 05°01' E 000°15'711.6
2017-Sep-17 21:19N 05°03' E 000°22'411.3
2017-Sep-17 20:59N 05°06' E 000°24'611.7
2017-Sep-17 20:30N 05°08' E 000°30'  
2017-Sep-14 18:55N 05°06' E 000°33'4612.5
2017-Sep-14 15:16N 04°49' W 000°09'98 8.2
2017-Sep-14 03:19N 04°13' W 001°41'0 1.1
2017-Sep-14 02:53N 04°13' W 001°41'0 1.2
2017-Sep-14 02:30N 04°13' W 001°41'1 1.3
2017-Sep-14 02:00N 04°12' W 001°41'1 1.4
2017-Sep-14 01:29N 04°11' W 001°42'1 1.4
2017-Sep-14 00:53N 04°10' W 001°42'1 1.6
2017-Sep-14 00:30N 04°10' W 001°42'1 1.6
2017-Sep-13 23:59N 04°09' W 001°43'1 1.6
2017-Sep-13 23:30N 04°08' W 001°43'1 1.6
2017-Sep-13 22:59N 04°08' W 001°43'1 1.4
2017-Sep-13 22:29N 04°07' W 001°43'1 1.2
2017-Sep-13 22:00N 04°06' W 001°43'1 1.5
2017-Sep-13 21:26N 04°05' W 001°43'0 1.1
2017-Sep-13 21:00N 04°05' W 001°43'2 3.8
2017-Sep-13 20:30N 04°06' W 001°45'610.7
2017-Sep-13 19:58N 04°10' W 001°49'511.3
2017-Sep-13 19:30N 04°13' W 001°53'811.2
2017-Sep-13 18:49N 04°16' W 002°00'411.1
2017-Sep-13 18:25N 04°18' W 002°04'610.8
2017-Sep-13 17:53N 04°21' W 002°09'1 0.6
2017-Sep-13 15:59N 04°22' W 002°10'1 1.5
2017-Sep-13 15:30N 04°21' W 002°10'1 1.4
2017-Sep-13 15:00N 04°21' W 002°09'1 1.3
2017-Sep-13 14:29N 04°20' W 002°09'1 1.1
2017-Sep-13 14:00N 04°20' W 002°09'1 1.2
2017-Sep-13 13:30N 04°19' W 002°09'1 1.1
2017-Sep-13 12:59N 04°19' W 002°08'1 1.1
2017-Sep-13 12:30N 04°18' W 002°08'1 1.2
2017-Sep-13 12:00N 04°18' W 002°07'1 1.4
2017-Sep-13 11:23N 04°17' W 002°07'1 1.5
2017-Sep-13 10:59N 04°17' W 002°07'1 1.6
2017-Sep-13 10:30N 04°16' W 002°06'1 1.5
2017-Sep-13 09:59N 04°15' W 002°06'1 1.3
2017-Sep-13 09:29N 04°15' W 002°06'1 1.3
2017-Sep-13 09:00N 04°14' W 002°05'1 1.6
2017-Sep-13 08:30N 04°13' W 002°05'1 1.4
2017-Sep-13 07:58N 04°13' W 002°04'1 1.4
2017-Sep-13 07:28N 04°12' W 002°04'1 1.1
2017-Sep-13 07:00N 04°12' W 002°04'1 1.2
2017-Sep-13 06:29N 04°11' W 002°03'1 1.4
2017-Sep-13 06:00N 04°11' W 002°03'1 1.5
2017-Sep-13 05:29N 04°10' W 002°03'1 1.6
2017-Sep-13 05:00N 04°09' W 002°03'1 1.6
2017-Sep-13 04:28N 04°08' W 002°02'1 1.8
2017-Sep-13 04:00N 04°08' W 002°02'1 1.7
2017-Sep-13 03:22N 04°07' W 002°02'1 1.7
2017-Sep-13 02:36N 04°05' W 002°01'0 1.5
2017-Sep-13 02:25N 04°05' W 002°01'1 1.5
2017-Sep-13 01:58N 04°05' W 002°01'1 1.6
2017-Sep-13 01:28N 04°04' W 002°00'1 1.7
2017-Sep-13 00:55N 04°03' W 001°60'1 1.4
2017-Sep-13 00:30N 04°03' W 001°60'  
2017-Sep-10 19:13N 03°49' W 001°29'0 0.2
2017-Sep-10 18:50N 03°49' W 001°29'0 0.3
2017-Sep-10 18:14N 03°49' W 001°29'12610.3
2017-Sep-10 06:04N 05°01' E 000°14'113.4
2017-Sep-10 06:00N 05°02' E 000°15'713.3
2017-Sep-10 05:30N 05°06' E 000°20'6012.9
2017-Sep-10 00:49N 05°44' E 001°07'713.0
2017-Sep-10 00:15N 05°50' E 001°12'312.9
2017-Sep-10 00:00N 05°53' E 001°14'612.6
2017-Sep-09 23:30N 05°58' E 001°17'3 5.5
2017-Sep-09 23:00N 06°01' E 001°18'0 0.1
2017-Sep-09 22:30N 06°01' E 001°18'0 0.0
2017-Sep-09 22:00N 06°01' E 001°18'0 0.0
2017-Sep-09 21:30N 06°01' E 001°18'0 0.0
2017-Sep-09 21:00N 06°01' E 001°18'0 0.0
2017-Sep-09 20:30N 06°01' E 001°18'0 0.0
2017-Sep-09 20:00N 06°01' E 001°18'  

Dump ship's entire track history